Time;durP1;ratioP1;P1;durP2;ratioP2;P2;SDS_P1;SDS_P2;PMS_P1;PMS_P2;Temp;Humidity;BMP_temperature;BMP_pressure;BME280_temperature;BME280_humidity;BME280_pressure;Samples;Min_cycle;Max_cycle;Signal;HPM_P1;HPM_P2
2021/12/12 00:00:08;;;;;;;35.47;14.27;;;;;;;;;;4362230;32;20027;-75
2021/12/12 00:02:49;;;;;;;33.20;13.85;;;;;;;;;;4361389;32;20041;-74
2021/12/12 00:05:41;;;;;;;31.48;12.82;;;;;;;;;;4361434;32;20046;-74
2021/12/12 00:08:20;;;;;;;40.85;13.88;;;;;;;;;;4360990;33;20020;-73
2021/12/12 00:11:04;;;;;;;46.70;15.00;;;;;;;;;;4361946;32;20377;-73
2021/12/12 00:13:53;;;;;;;36.83;15.80;;;;;;;;;;4361311;32;20019;-73
2021/12/12 00:16:30;;;;;;;43.17;15.50;;;;;;;;;;4355394;32;20053;-74
2021/12/12 00:19:01;;;;;;;44.42;15.52;;;;;;;;;;4315194;33;20024;-73
2021/12/12 00:21:38;;;;;;;;;;;;;;;;;;;;;
2021/12/12 00:24:30;;;;;;;41.50;14.82;;;;;;;;;;4372444;32;20031;-73
2021/12/12 00:26:56;;;;;;;32.70;14.82;;;;;;;;;;4362507;32;20113;-73
2021/12/12 00:29:30;;;;;;;49.15;15.82;;;;;;;;;;4362381;32;20085;-73
2021/12/12 00:31:58;;;;;;;29.70;13.95;;;;;;;;;;4376067;32;20057;-73
2021/12/12 00:34:47;;;;;;;41.45;15.48;;;;;;;;;;4361580;32;20427;-73
2021/12/12 00:43:40;;;;;;;39.58;17.95;;;;;;;;;;4329351;33;20082;-73
2021/12/12 00:46:18;;;;;;;;;;;;;;;;;;;;;
2021/12/12 00:48:54;;;;;;;;;;;;;;;;;;;;;
2021/12/12 01:07:06;;;;;;;35.63;15.20;;;;;;;;;;4329669;33;20457;-73
2021/12/12 01:09:59;;;;;;;33.20;13.55;;;;;;;;;;4317327;33;20064;-74
2021/12/12 01:12:27;;;;;;;31.55;12.98;;;;;;;;;;4339867;33;20093;-73
2021/12/12 01:24:24;;;;;;;27.13;11.93;;;;;;;;;;4271270;33;20179;-74
2021/12/12 01:27:18;;;;;;;33.22;12.70;;;;;;;;;;4276157;33;20594;-74
2021/12/12 01:29:53;;;;;;;38.92;12.57;;;;;;;;;;4306998;33;20359;-73
2021/12/12 01:32:26;;;;;;;31.45;12.75;;;;;;;;;;4300019;33;20056;-73
2021/12/12 01:34:52;;;;;;;36.70;12.73;;;;;;;;;;4337150;32;20066;-74
2021/12/12 01:43:24;;;;;;;24.12;12.37;;;;;;;;;;4344918;33;20071;-74
2021/12/12 01:46:41;;;;;;;31.73;14.10;;;;;;;;;;4372458;32;20027;-73
2021/12/12 01:58:34;;;;;;;42.33;15.88;;;;;;;;;;4314309;33;20098;-73
2021/12/12 02:01:30;;;;;;;37.40;18.52;;;;;;;;;;4313874;33;20051;-73
2021/12/12 02:07:05;;;;;;;40.40;20.27;;;;;;;;;;4306798;33;20144;-73
2021/12/12 02:09:30;;;;;;;43.20;20.75;;;;;;;;;;4335684;32;20035;-73
2021/12/12 02:12:14;;;;;;;;;;;;;;;;;;4378973;32;20405;-73
2021/12/12 02:15:10;;;;;;;42.62;21.50;;;;;;;;;;4377993;32;19946;-74
2021/12/12 02:17:41;;;;;;;48.57;21.83;;;;;;;;;;4378514;32;20073;-73
2021/12/12 02:20:17;;;;;;;51.40;22.40;;;;;;;;;;4378056;32;20489;-74
2021/12/12 02:41:08;;;;;;;46.33;27.58;;;;;;;;;;4324918;33;20055;-73
2021/12/12 02:44:03;;;;;;;51.65;27.25;;;;;;;;;;4339908;33;20053;-73
2021/12/12 02:46:33;;;;;;;58.10;32.50;;;;;;;;;;4359353;33;20053;-73
2021/12/12 02:49:10;;;;;;;55.63;31.30;;;;;;;;;;4373535;32;20042;-73
2021/12/12 02:51:37;;;;;;;56.72;30.52;;;;;;;;;;4378211;32;20369;-73
2021/12/12 02:54:35;;;;;;;53.80;30.30;;;;;;;;;;4377094;32;20081;-74
2021/12/12 02:57:01;;;;;;;54.75;31.50;;;;;;;;;;4351531;32;20084;-73
2021/12/12 02:59:26;;;;;;;;;;;;;;;;;;4377175;32;20030;-73
2021/12/12 03:02:16;;;;;;;50.95;33.78;;;;;;;;;;4363727;32;19973;-73
2021/12/12 03:04:42;;;;;;;51.88;32.53;;;;;;;;;;4377549;32;20385;-73
2021/12/12 03:07:22;;;;;;;;;;;;;;;;;;4377271;32;20077;-73
2021/12/12 03:10:24;;;;;;;62.42;35.63;;;;;;;;;;4377566;32;19960;-72
2021/12/12 03:12:43;;;;;;;62.00;36.45;;;;;;;;;;4375813;32;20089;-73
2021/12/12 03:15:08;;;;;;;;;;;;;;;;;;4377129;32;20031;-73
2021/12/12 03:17:38;;;;;;;65.82;35.08;;;;;;;;;;4378230;32;20272;-73
2021/12/12 03:20:10;;;;;;;61.72;36.92;;;;;;;;;;4376111;32;20055;-74
2021/12/12 03:22:35;;;;;;;59.72;37.28;;;;;;;;;;4377393;32;20443;-73
2021/12/12 03:25:01;;;;;;;;;;;;;;;;;;4364532;32;20058;-73
2021/12/12 03:27:29;;;;;;;46.80;29.68;;;;;;;;;;4377310;32;19934;-73
2021/12/12 03:29:57;;;;;;;50.65;30.50;;;;;;;;;;4376686;32;20046;-73
2021/12/12 03:32:35;;;;;;;49.30;30.27;;;;;;;;;;4377124;32;20416;-73
2021/12/12 03:35:03;;;;;;;52.67;31.12;;;;;;;;;;4376651;32;20054;-73
2021/12/12 03:37:30;;;;;;;55.80;33.78;;;;;;;;;;4375857;32;20058;-73
2021/12/12 03:43:18;;;;;;;51.67;30.55;;;;;;;;;;4335249;32;20062;-73
2021/12/12 03:45:44;;;;;;;56.75;33.42;;;;;;;;;;4376466;32;20034;-73
2021/12/12 03:51:43;;;;;;;54.10;33.42;;;;;;;;;;4376460;32;20506;-73
2021/12/12 03:54:10;;;;;;;55.55;36.45;;;;;;;;;;4376102;32;20057;-74
2021/12/12 03:56:47;;;;;;;66.70;38.17;;;;;;;;;;4376198;32;20086;-73
2021/12/12 03:59:23;;;;;;;;;;;;;;;;;;;;;
2021/12/12 04:04:45;;;;;;;52.35;32.47;;;;;;;;;;4344914;33;19930;-73
2021/12/12 04:07:26;;;;;;;;;;;;;;;;;;;;;
2021/12/12 04:09:53;;;;;;;59.83;36.28;;;;;;;;;;4372248;32;20066;-73
2021/12/12 04:12:21;;;;;;;59.85;38.83;;;;;;;;;;4375166;32;20035;-73
2021/12/12 04:14:51;;;;;;;61.40;38.33;;;;;;;;;;4375330;32;20390;-74
2021/12/12 04:17:22;;;;;;;66.45;38.75;;;;;;;;;;4376484;32;20077;-73
2021/12/12 04:19:49;;;;;;;60.53;37.33;;;;;;;;;;4376195;32;20031;-74
2021/12/12 04:22:17;;;;;;;57.90;37.17;;;;;;;;;;4376167;32;20046;-73
2021/12/12 04:24:44;;;;;;;71.65;41.45;;;;;;;;;;4375831;32;20084;-73
2021/12/12 04:27:10;;;;;;;62.03;39.15;;;;;;;;;;4376115;32;20038;-73
2021/12/12 04:29:39;;;;;;;67.65;39.45;;;;;;;;;;4376139;32;20031;-73
2021/12/12 04:32:09;;;;;;;62.03;37.15;;;;;;;;;;4377058;32;20091;-73
2021/12/12 04:34:37;;;;;;;58.95;38.25;;;;;;;;;;4375130;32;20447;-73
2021/12/12 04:37:04;;;;;;;68.72;42.05;;;;;;;;;;4375847;32;20027;-73
2021/12/12 04:39:31;;;;;;;63.55;38.13;;;;;;;;;;4376018;32;20334;-74
2021/12/12 04:42:19;;;;;;;70.87;41.70;;;;;;;;;;4374540;32;20035;-73
2021/12/12 04:44:47;;;;;;;72.25;42.10;;;;;;;;;;4375992;32;20035;-73
2021/12/12 04:53:18;;;;;;;79.12;45.72;;;;;;;;;;4376845;32;20348;-73
2021/12/12 04:55:43;;;;;;;;;;;;;;;;;;4375698;32;20051;-74
2021/12/12 04:58:10;;;;;;;94.72;49.58;;;;;;;;;;4375528;32;19997;-74
2021/12/12 05:00:47;;;;;;;82.88;45.83;;;;;;;;;;4375592;32;20127;-73
2021/12/12 05:03:26;;;;;;;89.80;48.00;;;;;;;;;;4375651;32;20049;-74
2021/12/12 05:06:08;;;;;;;;;;;;;;;;;;;;;
2021/12/12 05:08:35;;;;;;;92.37;46.28;;;;;;;;;;4375499;32;20070;-74
2021/12/12 05:11:18;;;;;;;;;;;;;;;;;;;;;
2021/12/12 05:14:50;;;;;;;;;;;;;;;;;;;;;
2021/12/12 05:41:35;;;;;;;113.97;55.40;;;;;;;;;;4272175;33;20113;-74
2021/12/12 05:44:22;;;;;;;129.85;57.97;;;;;;;;;;4327400;33;20054;-74
2021/12/12 05:49:50;;;;;;;140.23;61.75;;;;;;;;;;4365492;32;20043;-73
2021/12/12 05:52:18;;;;;;;;;;;;;;;;;;4365716;32;20054;-74
2021/12/12 05:54:44;;;;;;;135.12;63.40;;;;;;;;;;4365144;32;19957;-74
2021/12/12 05:57:19;;;;;;;135.50;60.83;;;;;;;;;;4378999;32;20027;-74
2021/12/12 06:00:07;;;;;;;147.13;65.30;;;;;;;;;;4366131;32;20417;-74
2021/12/12 06:02:33;;;;;;;129.80;62.92;;;;;;;;;;4379937;32;20069;-73
2021/12/12 06:05:12;;;;;;;144.43;66.15;;;;;;;;;;4379856;32;20042;-74
2021/12/12 06:07:38;;;;;;;135.40;63.78;;;;;;;;;;4379255;32;20460;-74
2021/12/12 06:10:06;;;;;;;;;;;;;;;;;;4392953;32;20027;-74
2021/12/12 06:12:33;;;;;;;158.25;64.90;;;;;;;;;;4379961;32;19978;-74
2021/12/12 06:14:59;;;;;;;154.90;65.75;;;;;;;;;;4380178;32;20039;-74
2021/12/12 06:18:01;;;;;;;;;;;;;;;;;;;;;
2021/12/12 06:35:48;;;;;;;182.90;68.10;;;;;;;;;;4303537;33;20067;-74
2021/12/12 06:38:33;;;;;;;157.27;69.30;;;;;;;;;;4375709;32;20027;-74
2021/12/12 06:41:01;;;;;;;151.32;66.43;;;;;;;;;;4379958;32;20041;-73
2021/12/12 06:43:36;;;;;;;159.80;67.32;;;;;;;;;;4380721;32;20364;-73
2021/12/12 06:46:10;;;;;;;154.52;68.40;;;;;;;;;;4379989;32;20460;-73
2021/12/12 06:49:13;;;;;;;;;;;;;;;;;;;;;
2021/12/12 06:51:42;;;;;;;;;;;;;;;;;;;;;
2021/12/12 06:57:52;;;;;;;181.12;70.43;;;;;;;;;;4345701;33;20050;-74
2021/12/12 07:03:05;;;;;;;192.48;70.55;;;;;;;;;;4348904;32;20042;-74
2021/12/12 07:05:30;;;;;;;;;;;;;;;;;;4363020;32;20042;-74
2021/12/12 07:08:20;;;;;;;182.60;71.32;;;;;;;;;;4375274;32;20284;-74
2021/12/12 07:10:51;;;;;;;188.57;69.43;;;;;;;;;;4378539;32;20120;-73
2021/12/12 07:13:17;;;;;;;199.60;72.90;;;;;;;;;;4378030;32;20023;-74
2021/12/12 07:15:42;;;;;;;;;;;;;;;;;;4377657;32;20018;-74
2021/12/12 07:39:36;;;;;;;;;;;;;;;;;;;;;
2021/12/12 07:42:41;;;;;;;238.45;75.95;;;;;;;;;;4300067;33;20090;-74
2021/12/12 07:45:25;;;;;;;191.75;68.75;;;;;;;;;;4312429;33;20040;-74
2021/12/12 07:47:52;;;;;;;226.75;72.68;;;;;;;;;;4295383;33;20086;-74
2021/12/12 07:50:19;;;;;;;182.65;68.55;;;;;;;;;;4323498;32;20043;-74
2021/12/12 07:53:07;;;;;;;197.13;70.25;;;;;;;;;;4376485;32;20035;-74
2021/12/12 07:55:33;;;;;;;200.48;68.37;;;;;;;;;;4377189;32;20191;-74
2021/12/12 07:58:04;;;;;;;;;;;;;;;;;;4376726;32;20410;-74
2021/12/12 08:13:46;;;;;;;217.15;74.25;;;;;;;;;;4331159;33;20582;-74
2021/12/12 08:16:15;;;;;;;237.15;74.40;;;;;;;;;;4354622;32;20104;-74
2021/12/12 08:31:14;;;;;;;258.40;74.03;;;;;;;;;;4215522;34;20088;-75
2021/12/12 08:34:19;;;;;;;217.45;69.93;;;;;;;;;;4214661;34;20054;-75
2021/12/12 08:37:25;;;;;;;226.45;73.25;;;;;;;;;;4215202;34;20102;-75
2021/12/12 08:39:55;;;;;;;;;;;;;;;;;;;;;
2021/12/12 08:42:41;;;;;;;217.75;72.32;;;;;;;;;;4257495;33;20441;-75
2021/12/12 08:45:20;;;;;;;226.77;73.20;;;;;;;;;;4257120;33;20497;-75
2021/12/12 08:48:07;;;;;;;203.90;64.40;;;;;;;;;;4263735;33;20041;-75
2021/12/12 08:50:56;;;;;;;176.82;63.47;;;;;;;;;;4294597;33;20387;-74
2021/12/12 09:00:09;;;;;;;;;;;;;;;;;;;;;
2021/12/12 09:02:34;;;;;;;172.75;60.80;;;;;;;;;;4318969;33;20051;-73
2021/12/12 09:05:03;;;;;;;;;;;;;;;;;;4346284;33;20040;-74
2021/12/12 09:08:01;;;;;;;;;;;;;;;;;;;;;
2021/12/12 09:10:50;;;;;;;153.18;60.40;;;;;;;;;;4346596;33;20058;-74
2021/12/12 09:13:17;;;;;;;141.85;56.30;;;;;;;;;;4358342;32;20053;-74
2021/12/12 09:15:46;;;;;;;135.98;52.78;;;;;;;;;;4346418;32;20031;-74
2021/12/12 09:24:43;;;;;;;112.65;48.65;;;;;;;;;;4358924;32;20069;-73
2021/12/12 09:27:45;;;;;;;96.70;42.72;;;;;;;;;;4360012;32;20416;-74
2021/12/12 09:36:27;;;;;;;;;;;;;;;;;;;;;
2021/12/12 09:42:17;;;;;;;79.35;38.72;;;;;;;;;;4337579;33;20090;-74
2021/12/12 09:45:18;;;;;;;94.43;42.42;;;;;;;;;;4343288;33;20084;-74
2021/12/12 09:48:27;;;;;;;93.87;41.00;;;;;;;;;;4324070;33;20047;-74
2021/12/12 09:51:26;;;;;;;82.22;37.22;;;;;;;;;;4317023;33;20093;-74
2021/12/12 09:54:26;;;;;;;88.40;38.22;;;;;;;;;;4328589;33;20114;-74
2021/12/12 09:57:15;;;;;;;86.00;39.22;;;;;;;;;;4328599;33;20194;-74
2021/12/12 10:00:53;;;;;;;73.97;36.17;;;;;;;;;;4340342;33;20032;-74
2021/12/12 10:03:14;;;;;;;84.82;38.72;;;;;;;;;;4344922;33;20426;-75
2021/12/12 10:05:58;;;;;;;88.47;37.85;;;;;;;;;;4344087;33;20039;-74
2021/12/12 10:08:24;;;;;;;78.60;37.10;;;;;;;;;;4345445;33;20024;-75
2021/12/12 10:10:49;;;;;;;;;;;;;;;;;;4347616;33;20031;-75
2021/12/12 10:13:36;;;;;;;76.20;35.55;;;;;;;;;;4359994;33;20301;-75
2021/12/12 10:16:23;;;;;;;82.55;38.50;;;;;;;;;;4360218;33;20032;-75
2021/12/12 10:18:51;;;;;;;;;;;;;;;;;;4360204;33;20047;-74
2021/12/12 10:21:24;;;;;;;73.82;35.40;;;;;;;;;;4346343;33;19965;-75
2021/12/12 10:27:09;;;;;;;65.55;33.22;;;;;;;;;;4359503;32;20062;-75
2021/12/12 10:33:25;;;;;;;;;;;;;;;;;;;;;
2021/12/12 10:37:16;;;;;;;60.72;31.42;;;;;;;;;;4296937;33;20086;-73
2021/12/12 10:42:49;;;;;;;;;;;;;;;;;;;;;
2021/12/12 10:48:58;;;;;;;;;;;;;;;;;;;;;
2021/12/12 10:51:51;;;;;;;66.85;33.67;;;;;;;;;;4273317;33;20041;-73
2021/12/12 10:57:51;;;;;;;60.60;31.95;;;;;;;;;;4258760;33;20563;-73
2021/12/12 11:00:27;;;;;;;54.55;29.15;;;;;;;;;;4259012;33;20029;-74
2021/12/12 11:06:02;;;;;;;55.85;29.08;;;;;;;;;;4301330;33;20118;-74
2021/12/12 11:18:58;;;;;;;52.83;27.10;;;;;;;;;;4308489;33;20091;-74
2021/12/12 11:24:58;;;;;;;43.83;25.25;;;;;;;;;;4302624;33;20071;-74
2021/12/12 11:27:27;;;;;;;42.78;24.25;;;;;;;;;;4334784;32;20047;-75
2021/12/12 11:29:56;;;;;;;46.67;25.77;;;;;;;;;;4366898;32;20180;-74
2021/12/12 11:32:26;;;;;;;41.20;23.45;;;;;;;;;;4371638;32;20377;-74
2021/12/12 11:34:52;;;;;;;38.85;22.05;;;;;;;;;;4368421;32;20050;-73
2021/12/12 11:37:55;;;;;;;43.63;24.12;;;;;;;;;;4365640;32;20100;-74
2021/12/12 11:40:24;;;;;;;41.53;23.58;;;;;;;;;;4384804;32;20046;-74
2021/12/12 11:43:32;;;;;;;40.20;23.27;;;;;;;;;;4391455;32;20065;-73
2021/12/12 11:45:59;;;;;;;40.38;24.25;;;;;;;;;;4390803;32;20042;-74
2021/12/12 11:48:33;;;;;;;36.65;21.40;;;;;;;;;;4371064;32;20086;-73
2021/12/12 11:51:06;;;;;;;31.98;20.05;;;;;;;;;;4376018;32;20109;-74
2021/12/12 11:53:48;;;;;;;31.70;19.55;;;;;;;;;;4368753;32;20039;-74
2021/12/12 11:56:31;;;;;;;30.52;19.52;;;;;;;;;;4375698;32;20054;-74
2021/12/12 11:59:07;;;;;;;35.70;20.52;;;;;;;;;;4370317;32;20502;-74
2021/12/12 12:02:27;;;;;;;36.10;19.98;;;;;;;;;;4377230;32;20097;-73
2021/12/12 12:04:58;;;;;;;27.27;17.67;;;;;;;;;;4329628;33;20121;-74
2021/12/12 12:07:33;;;;;;;28.92;18.42;;;;;;;;;;4373334;32;20055;-74
2021/12/12 12:10:05;;;;;;;29.05;19.05;;;;;;;;;;4376691;32;20035;-74
2021/12/12 12:12:52;;;;;;;29.60;17.98;;;;;;;;;;4376449;32;20338;-74
2021/12/12 12:15:38;;;;;;;29.00;19.08;;;;;;;;;;4376252;32;20019;-75
2021/12/12 12:21:33;;;;;;;24.77;17.65;;;;;;;;;;4343529;32;20073;-74
2021/12/12 12:24:22;;;;;;;30.17;19.90;;;;;;;;;;4373397;32;20035;-75
2021/12/12 12:34:22;;;;;;;;;;;;;;;;;;;;;
2021/12/12 12:37:10;;;;;;;;;;;;;;;;;;;;;
2021/12/12 12:39:54;;;;;;;29.35;19.55;;;;;;;;;;4285035;33;20188;-75
2021/12/12 12:49:01;;;;;;;37.38;23.33;;;;;;;;;;4359366;33;20050;-74
2021/12/12 12:55:08;;;;;;;38.38;23.58;;;;;;;;;;4284849;33;20173;-75
2021/12/12 12:57:42;;;;;;;41.33;25.08;;;;;;;;;;4273628;33;20037;-75
2021/12/12 13:06:39;;;;;;;39.22;26.12;;;;;;;;;;4285582;33;20051;-74
2021/12/12 13:12:13;;;;;;;;;;;;;;;;;;4330120;32;20085;-73
2021/12/12 13:15:17;;;;;;;56.30;29.30;;;;;;;;;;4365079;32;19942;-73
2021/12/12 13:18:06;;;;;;;59.47;29.85;;;;;;;;;;4372065;32;20074;-73
2021/12/12 13:24:29;;;;;;;71.95;33.78;;;;;;;;;;4365017;32;20172;-73
2021/12/12 13:30:29;;;;;;;76.57;34.95;;;;;;;;;;4257875;33;20029;-75
2021/12/12 13:36:27;;;;;;;76.65;35.05;;;;;;;;;;4299570;33;20052;-75
2021/12/12 13:48:04;;;;;;;79.18;32.42;;;;;;;;;;4243590;33;20046;-75
2021/12/12 13:50:54;;;;;;;;;;;;;;;;;;;;;
2021/12/12 13:53:30;;;;;;;58.30;25.95;;;;;;;;;;4285055;33;20021;-75
2021/12/12 13:58:50;;;;;;;51.67;23.17;;;;;;;;;;4345688;33;20385;-75
2021/12/12 14:32:47;;;;;;;;;;;;;;;;;;;;;
2021/12/12 14:45:14;;;;;;;48.23;22.80;;;;;;;;;;4298698;33;20179;-75
2021/12/12 14:48:11;;;;;;;54.58;22.73;;;;;;;;;;4316298;33;20024;-75
2021/12/12 15:09:38;;;;;;;60.70;28.85;;;;;;;;;;4287228;33;20056;-74
2021/12/12 15:12:45;;;;;;;;;;;;;;;;;;;;;
2021/12/12 15:15:33;;;;;;;66.53;30.10;;;;;;;;;;4336046;32;20057;-74
2021/12/12 15:18:24;;;;;;;74.78;28.92;;;;;;;;;;4373959;32;20027;-75
2021/12/12 15:20:55;;;;;;;75.68;29.92;;;;;;;;;;4348248;33;20403;-75
2021/12/12 15:26:36;;;;;;;81.87;27.40;;;;;;;;;;4361105;32;20049;-75
2021/12/12 15:32:29;;;;;;;64.43;24.92;;;;;;;;;;4329121;33;20032;-74
2021/12/12 15:35:03;;;;;;;57.25;24.00;;;;;;;;;;4329135;33;20039;-75
2021/12/12 15:53:12;;;;;;;71.90;22.55;;;;;;;;;;4286761;33;20078;-75
2021/12/12 15:55:45;;;;;;;55.47;23.52;;;;;;;;;;4286837;33;20091;-75
2021/12/12 16:01:11;;;;;;;58.25;23.20;;;;;;;;;;4311809;33;20063;-75
2021/12/12 16:03:55;;;;;;;65.40;24.50;;;;;;;;;;4336165;32;20035;-75
2021/12/12 16:26:02;;;;;;;;;;;;;;;;;;;;;
2021/12/12 16:28:53;;;;;;;88.78;26.50;;;;;;;;;;4243943;33;20041;-75
2021/12/12 16:34:40;;;;;;;82.05;25.95;;;;;;;;;;4243745;33;20033;-75
2021/12/12 16:46:31;;;;;;;72.60;22.92;;;;;;;;;;4215405;34;20115;-75
2021/12/12 16:48:57;;;;;;;82.75;20.35;;;;;;;;;;4215104;34;20045;-75
2021/12/12 16:51:34;;;;;;;73.35;21.15;;;;;;;;;;4242557;33;20139;-75
2021/12/12 16:54:28;;;;;;;71.10;18.92;;;;;;;;;;4315729;33;20028;-75
2021/12/12 16:57:08;;;;;;;69.90;18.35;;;;;;;;;;4332750;33;20043;-75
2021/12/12 16:59:38;;;;;;;74.32;18.08;;;;;;;;;;4346414;33;20433;-75
2021/12/12 17:02:05;;;;;;;91.95;20.62;;;;;;;;;;4355945;33;20035;-75
2021/12/12 17:04:35;;;;;;;72.00;16.08;;;;;;;;;;4360647;32;20073;-75
2021/12/12 17:07:18;;;;;;;70.68;16.42;;;;;;;;;;4360281;33;20437;-75
2021/12/12 17:10:02;;;;;;;94.47;20.65;;;;;;;;;;4347882;33;20113;-75
2021/12/12 17:13:45;;;;;;;;;;;;;;;;;;;;;
2021/12/12 17:16:15;;;;;;;64.25;15.95;;;;;;;;;;4298713;33;20058;-74
2021/12/12 17:19:18;;;;;;;82.03;17.52;;;;;;;;;;4309431;33;20460;-75
2021/12/12 17:28:34;;;;;;;74.05;22.70;;;;;;;;;;4271751;33;20029;-75
2021/12/12 17:34:25;;;;;;;81.95;24.17;;;;;;;;;;4299781;33;20068;-74
2021/12/12 17:37:27;;;;;;;82.72;22.08;;;;;;;;;;4277363;33;20037;-74
2021/12/12 17:39:57;;;;;;;74.50;22.67;;;;;;;;;;4273286;33;20191;-75
2021/12/12 17:48:29;;;;;;;;;;;;;;;;;;;;;
2021/12/12 17:54:32;;;;;;;77.37;23.52;;;;;;;;;;4285472;33;20104;-74
2021/12/12 18:06:34;;;;;;;86.05;31.48;;;;;;;;;;4345651;33;20049;-74
2021/12/12 18:18:15;;;;;;;67.95;20.90;;;;;;;;;;4257507;33;20485;-74
2021/12/12 18:27:07;;;;;;;79.80;19.48;;;;;;;;;;4214162;34;20095;-75
2021/12/12 18:30:11;;;;;;;70.07;19.65;;;;;;;;;;4214016;34;20436;-76
2021/12/12 18:32:55;;;;;;;54.80;19.30;;;;;;;;;;4232385;33;20041;-75
2021/12/12 18:36:08;;;;;;;55.47;18.17;;;;;;;;;;4265497;33;20060;-75
2021/12/12 18:42:00;;;;;;;61.97;20.12;;;;;;;;;;4293567;33;20051;-75
2021/12/12 18:45:14;;;;;;;62.15;18.35;;;;;;;;;;4299003;33;20074;-75
2021/12/12 18:47:27;;;;;;;58.20;21.48;;;;;;;;;;4314416;33;20044;-75
2021/12/12 18:50:27;;;;;;;70.90;20.62;;;;;;;;;;4361729;32;20075;-74
2021/12/12 18:53:16;;;;;;;66.87;18.45;;;;;;;;;;4362964;32;20208;-75
2021/12/12 18:56:02;;;;;;;;;;;;;;;;;;;;;
2021/12/12 18:58:46;;;;;;;50.40;19.83;;;;;;;;;;4378297;32;20035;-75
2021/12/12 19:01:20;;;;;;;57.78;20.15;;;;;;;;;;4377077;32;20103;-75
2021/12/12 19:04:18;;;;;;;51.80;18.80;;;;;;;;;;4377716;32;20048;-75
2021/12/12 19:06:49;;;;;;;51.95;18.92;;;;;;;;;;4369855;32;20062;-75
2021/12/12 19:09:21;;;;;;;55.88;18.37;;;;;;;;;;4377193;32;20057;-74
2021/12/12 19:12:00;;;;;;;50.42;17.20;;;;;;;;;;4375620;32;20039;-74
2021/12/12 19:14:36;;;;;;;65.37;19.25;;;;;;;;;;4377225;32;20038;-74
2021/12/12 19:17:01;;;;;;;;;;;;;;;;;;4376633;32;20357;-75
2021/12/12 19:19:47;;;;;;;51.42;16.15;;;;;;;;;;4377066;32;19934;-74
2021/12/12 19:22:16;;;;;;;40.17;15.35;;;;;;;;;;4386289;32;20065;-74
2021/12/12 19:24:44;;;;;;;46.03;16.12;;;;;;;;;;4375551;32;20421;-74
2021/12/12 19:27:12;;;;;;;47.28;13.93;;;;;;;;;;4377192;32;20341;-74
2021/12/12 19:29:44;;;;;;;37.33;10.40;;;;;;;;;;4376701;32;20097;-74
2021/12/12 19:32:19;;;;;;;37.33;12.50;;;;;;;;;;4377035;32;20077;-74
2021/12/12 19:35:22;;;;;;;46.72;14.15;;;;;;;;;;4375359;32;20458;-75
2021/12/12 19:37:50;;;;;;;57.80;16.67;;;;;;;;;;4373260;32;20034;-74
2021/12/12 19:41:32;;;;;;;46.22;14.32;;;;;;;;;;4375856;32;20412;-74
2021/12/12 19:43:36;;;;;;;32.83;13.05;;;;;;;;;;4298173;33;20032;-74
2021/12/12 19:46:30;;;;;;;31.95;11.32;;;;;;;;;;4303779;33;20045;-74
2021/12/12 19:48:59;;;;;;;32.75;12.95;;;;;;;;;;4372329;32;20038;-74
2021/12/12 19:55:18;;;;;;;29.00;13.70;;;;;;;;;;4330237;33;20420;-74
2021/12/12 20:01:15;;;;;;;29.17;12.82;;;;;;;;;;4326009;33;20114;-73
2021/12/12 20:03:42;;;;;;;36.08;14.75;;;;;;;;;;4330045;33;20090;-74
2021/12/12 20:06:22;;;;;;;;;;;;;;;;;;;;;
2021/12/12 20:09:22;;;;;;;33.22;13.95;;;;;;;;;;4375998;32;20077;-74
2021/12/12 20:11:49;;;;;;;34.92;16.17;;;;;;;;;;4376539;32;20035;-74
2021/12/12 20:17:23;;;;;;;41.05;17.52;;;;;;;;;;4329316;33;20114;-74
2021/12/12 20:19:54;;;;;;;36.92;18.95;;;;;;;;;;4364261;32;20081;-74
2021/12/12 20:25:32;;;;;;;45.20;20.77;;;;;;;;;;4354609;32;20061;-74
2021/12/12 20:31:35;;;;;;;;;;;;;;;;;;;;;
2021/12/12 20:34:26;;;;;;;67.25;28.27;;;;;;;;;;4354340;32;20046;-74
2021/12/12 20:37:00;;;;;;;58.47;27.87;;;;;;;;;;4370403;32;20057;-74
2021/12/12 20:39:31;;;;;;;65.65;28.38;;;;;;;;;;4374455;32;20377;-74
2021/12/12 20:42:29;;;;;;;64.30;31.77;;;;;;;;;;4371110;32;20125;-75
2021/12/12 20:48:07;;;;;;;60.25;30.45;;;;;;;;;;4372623;32;20098;-74
2021/12/12 20:50:47;;;;;;;62.47;33.88;;;;;;;;;;4350694;33;20382;-74
2021/12/12 20:53:19;;;;;;;65.00;32.00;;;;;;;;;;4359712;33;20213;-76
2021/12/12 20:55:48;;;;;;;63.55;33.28;;;;;;;;;;4361171;32;20027;-74
2021/12/12 20:58:23;;;;;;;65.97;33.60;;;;;;;;;;4359639;32;20028;-74
2021/12/12 21:01:18;;;;;;;60.65;32.25;;;;;;;;;;4360560;32;20035;-74
2021/12/12 21:03:49;;;;;;;64.20;32.42;;;;;;;;;;4358680;33;20043;-74
2021/12/12 21:06:17;;;;;;;56.85;31.62;;;;;;;;;;4360956;32;20035;-74
2021/12/12 21:08:46;;;;;;;74.40;36.13;;;;;;;;;;4360614;32;20032;-74
2021/12/12 21:11:21;;;;;;;65.82;32.83;;;;;;;;;;4359952;32;20035;-74
2021/12/12 21:14:39;;;;;;;74.97;36.17;;;;;;;;;;4360926;32;20031;-74
2021/12/12 21:17:16;;;;;;;74.47;34.65;;;;;;;;;;4359559;33;20057;-74
2021/12/12 21:20:23;;;;;;;68.93;33.30;;;;;;;;;;4360716;32;20086;-74
2021/12/12 21:23:22;;;;;;;66.95;31.10;;;;;;;;;;4299833;33;20032;-74
2021/12/12 21:25:49;;;;;;;64.37;33.88;;;;;;;;;;4299587;33;20067;-73
2021/12/12 21:28:18;;;;;;;70.47;33.33;;;;;;;;;;4343821;33;20027;-74
2021/12/12 21:30:50;;;;;;;65.07;34.45;;;;;;;;;;4360580;32;20034;-73
2021/12/12 21:33:29;;;;;;;61.03;32.35;;;;;;;;;;4346761;33;20035;-73
2021/12/12 21:36:27;;;;;;;70.32;35.92;;;;;;;;;;4361071;32;20019;-73
2021/12/12 21:38:55;;;;;;;55.67;33.35;;;;;;;;;;4330748;33;20066;-73
2021/12/12 21:41:21;;;;;;;59.60;33.40;;;;;;;;;;4360199;32;20035;-73
2021/12/12 21:43:55;;;;;;;;;;;;;;;;;;4360610;32;20057;-73
2021/12/12 21:46:43;;;;;;;56.42;32.80;;;;;;;;;;4360235;33;19958;-73
2021/12/12 21:49:13;;;;;;;64.82;35.03;;;;;;;;;;4371791;32;20134;-73
2021/12/12 21:51:39;;;;;;;66.60;33.80;;;;;;;;;;4373605;32;20023;-73
2021/12/12 21:54:07;;;;;;;;;;;;;;;;;;4375506;32;20057;-73
2021/12/12 21:56:32;;;;;;;55.97;30.15;;;;;;;;;;4374591;32;19962;-73
2021/12/12 21:58:58;;;;;;;;;;;;;;;;;;4375788;32;20372;-73
2021/12/12 22:01:56;;;;;;;56.80;31.33;;;;;;;;;;4374415;32;20269;-73
2021/12/12 22:04:20;;;;;;;;;;;;;;;;;;4375245;32;20095;-73
2021/12/12 22:06:47;;;;;;;54.90;31.25;;;;;;;;;;4375129;32;19953;-73
2021/12/12 22:09:25;;;;;;;50.20;32.17;;;;;;;;;;4373531;32;20182;-73
2021/12/12 22:12:09;;;;;;;50.33;32.08;;;;;;;;;;4375103;32;20031;-73
2021/12/12 22:14:50;;;;;;;50.55;33.05;;;;;;;;;;4373857;32;20097;-73
2021/12/12 22:17:37;;;;;;;51.45;33.17;;;;;;;;;;4375113;32;20026;-73
2021/12/12 22:20:12;;;;;;;50.58;31.55;;;;;;;;;;4372827;32;20121;-73
2021/12/12 22:22:58;;;;;;;51.28;32.78;;;;;;;;;;4375188;32;20105;-73
2021/12/12 22:25:26;;;;;;;49.55;31.15;;;;;;;;;;4366312;32;20439;-73
2021/12/12 22:27:58;;;;;;;48.55;28.85;;;;;;;;;;4377888;32;20393;-73
2021/12/12 22:30:27;;;;;;;46.85;26.83;;;;;;;;;;4378270;32;20030;-73
2021/12/12 22:33:03;;;;;;;41.50;23.98;;;;;;;;;;4377628;32;20426;-73
2021/12/12 22:35:43;;;;;;;45.08;21.98;;;;;;;;;;4376978;32;20050;-73
2021/12/12 22:38:28;;;;;;;34.55;19.62;;;;;;;;;;4378306;32;20019;-74
2021/12/12 22:47:23;;;;;;;;;;;;;;;;;;;;;
2021/12/12 23:19:02;;;;;;;38.85;15.95;;;;;;;;;;4259094;33;20066;-73
2021/12/12 23:21:33;;;;;;;26.27;14.13;;;;;;;;;;4249283;33;20122;-73
2021/12/12 23:24:29;;;;;;;28.38;13.13;;;;;;;;;;4322364;33;20355;-73
2021/12/12 23:30:18;;;;;;;;;;;;;;;;;;;;;
2021/12/12 23:36:34;;;;;;;24.63;10.40;;;;;;;;;;4344594;33;20046;-73
2021/12/12 23:48:50;;;;;;;28.42;11.30;;;;;;;;;;4278937;33;20459;-73
2021/12/12 23:57:51;;;;;;;21.70;10.68;;;;;;;;;;4244463;33;20130;-74
